sensor_id;sensor_type;location;lat;lon;timestamp;pressure;altitude;pressure_sealevel;temperature;humidity
53659;BME280;41524;35.624;139.698;2022-12-29T00:00:16;101678.00;;;19.94;18.24
53659;BME280;41524;35.624;139.698;2022-12-29T00:05:11;101676.00;;;18.59;18.52
53659;BME280;41524;35.624;139.698;2022-12-29T00:10:11;101680.00;;;18.87;17.94
53659;BME280;41524;35.624;139.698;2022-12-29T00:15:13;101684.00;;;18.29;19.70
53659;BME280;41524;35.624;139.698;2022-12-29T00:20:11;101686.00;;;12.44;23.44
53659;BME280;41524;35.624;139.698;2022-12-29T00:25:12;101688.00;;;12.19;25.72
53659;BME280;41524;35.624;139.698;2022-12-29T00:30:15;101694.00;;;10.94;27.41
53659;BME280;41524;35.624;139.698;2022-12-29T00:35:14;101692.00;;;10.15;28.50
53659;BME280;41524;35.624;139.698;2022-12-29T00:40:10;101688.00;;;10.69;29.11
53659;BME280;41524;35.624;139.698;2022-12-29T00:45:15;101683.00;;;10.10;29.29
53659;BME280;41524;35.624;139.698;2022-12-29T00:50:11;101683.00;;;12.18;27.61
53659;BME280;41524;35.624;139.698;2022-12-29T00:55:11;101693.00;;;11.26;28.02
53659;BME280;41524;35.624;139.698;2022-12-29T01:00:15;101685.00;;;10.84;28.27
53659;BME280;41524;35.624;139.698;2022-12-29T01:05:15;101678.00;;;12.67;26.98
53659;BME280;41524;35.624;139.698;2022-12-29T01:10:11;101684.00;;;12.05;27.14
53659;BME280;41524;35.624;139.698;2022-12-29T01:15:12;101680.00;;;11.26;26.67
53659;BME280;41524;35.624;139.698;2022-12-29T01:20:12;101675.00;;;11.15;27.12
53659;BME280;41524;35.624;139.698;2022-12-29T01:25:11;101667.00;;;12.05;26.42
53659;BME280;41524;35.624;139.698;2022-12-29T01:30:12;101659.00;;;12.96;26.47
53659;BME280;41524;35.624;139.698;2022-12-29T01:35:18;101650.00;;;12.65;26.58
53659;BME280;41524;35.624;139.698;2022-12-29T01:40:16;101652.00;;;13.23;26.05
53659;BME280;41524;35.624;139.698;2022-12-29T01:45:16;101639.00;;;13.61;24.63
53659;BME280;41524;35.624;139.698;2022-12-29T01:50:13;101624.00;;;13.74;25.55
53659;BME280;41524;35.624;139.698;2022-12-29T01:55:13;101621.00;;;12.39;24.74
53659;BME280;41524;35.624;139.698;2022-12-29T02:00:13;101621.00;;;11.79;25.37
53659;BME280;41524;35.624;139.698;2022-12-29T02:05:16;101620.00;;;12.50;24.45
53659;BME280;41524;35.624;139.698;2022-12-29T02:10:11;101609.00;;;14.48;23.74
53659;BME280;41524;35.624;139.698;2022-12-29T02:15:11;101594.00;;;13.65;24.86
53659;BME280;41524;35.624;139.698;2022-12-29T02:20:33;101587.00;;;15.09;24.15
53659;BME280;41524;35.624;139.698;2022-12-29T02:30:36;101567.00;;;14.69;22.35
53659;BME280;41524;35.624;139.698;2022-12-29T02:35:22;101553.00;;;14.02;22.73
53659;BME280;41524;35.624;139.698;2022-12-29T02:40:17;101549.00;;;14.87;22.29
53659;BME280;41524;35.624;139.698;2022-12-29T02:45:18;101540.00;;;15.62;22.17
53659;BME280;41524;35.624;139.698;2022-12-29T02:50:22;101526.00;;;15.87;22.43
53659;BME280;41524;35.624;139.698;2022-12-29T02:55:12;101514.00;;;15.23;22.50
53659;BME280;41524;35.624;139.698;2022-12-29T03:00:16;101512.00;;;12.88;24.47
53659;BME280;41524;35.624;139.698;2022-12-29T03:05:22;101506.00;;;15.98;21.39
53659;BME280;41524;35.624;139.698;2022-12-29T03:10:19;101508.00;;;14.79;21.50
53659;BME280;41524;35.624;139.698;2022-12-29T03:15:17;101494.00;;;15.72;21.51
53659;BME280;41524;35.624;139.698;2022-12-29T03:20:15;101478.00;;;16.82;17.77
53659;BME280;41524;35.624;139.698;2022-12-29T03:25:16;101476.00;;;17.09;20.70
53659;BME280;41524;35.624;139.698;2022-12-29T03:30:17;101471.00;;;22.80;15.93
53659;BME280;41524;35.624;139.698;2022-12-29T03:35:15;101473.00;;;22.34;17.02
53659;BME280;41524;35.624;139.698;2022-12-29T03:40:15;101467.00;;;29.70;11.11
53659;BME280;41524;35.624;139.698;2022-12-29T03:45:11;101457.00;;;27.05;11.11
53659;BME280;41524;35.624;139.698;2022-12-29T03:50:16;101451.00;;;30.02;10.33
53659;BME280;41524;35.624;139.698;2022-12-29T03:55:21;101440.00;;;30.62;9.10
53659;BME280;41524;35.624;139.698;2022-12-29T04:00:13;101442.00;;;30.09;9.49
53659;BME280;41524;35.624;139.698;2022-12-29T04:05:13;101438.00;;;27.25;10.17
53659;BME280;41524;35.624;139.698;2022-12-29T04:10:12;101419.00;;;31.37;8.68
53659;BME280;41524;35.624;139.698;2022-12-29T04:15:11;101423.00;;;31.14;8.61
53659;BME280;41524;35.624;139.698;2022-12-29T04:20:11;101419.00;;;33.31;7.43
53659;BME280;41524;35.624;139.698;2022-12-29T04:25:21;101424.00;;;26.81;10.03
53659;BME280;41524;35.624;139.698;2022-12-29T04:30:16;101432.00;;;31.87;7.92
53659;BME280;41524;35.624;139.698;2022-12-29T04:35:11;101426.00;;;23.33;11.19
53659;BME280;41524;35.624;139.698;2022-12-29T04:40:11;101424.00;;;27.42;9.60
53659;BME280;41524;35.624;139.698;2022-12-29T04:45:15;101424.00;;;30.70;8.53
53659;BME280;41524;35.624;139.698;2022-12-29T04:50:11;101427.00;;;14.40;16.65
53659;BME280;41524;35.624;139.698;2022-12-29T04:55:13;101435.00;;;12.98;18.84
53659;BME280;41524;35.624;139.698;2022-12-29T05:00:19;101433.00;;;12.18;20.65
53659;BME280;41524;35.624;139.698;2022-12-29T05:05:11;101442.00;;;12.51;21.19
53659;BME280;41524;35.624;139.698;2022-12-29T05:10:11;101447.00;;;12.44;21.70
53659;BME280;41524;35.624;139.698;2022-12-29T05:15:17;101452.00;;;12.24;22.47
53659;BME280;41524;35.624;139.698;2022-12-29T05:20:11;101457.00;;;12.80;21.98
53659;BME280;41524;35.624;139.698;2022-12-29T05:25:10;101472.00;;;12.76;22.11
53659;BME280;41524;35.624;139.698;2022-12-29T05:30:12;101466.00;;;12.91;22.68
53659;BME280;41524;35.624;139.698;2022-12-29T05:35:12;101465.00;;;11.57;23.18
53659;BME280;41524;35.624;139.698;2022-12-29T05:40:11;101475.00;;;11.68;24.48
53659;BME280;41524;35.624;139.698;2022-12-29T05:45:16;101481.00;;;10.98;24.73
53659;BME280;41524;35.624;139.698;2022-12-29T05:50:12;101483.00;;;10.54;25.21
53659;BME280;41524;35.624;139.698;2022-12-29T05:55:12;101481.00;;;11.47;24.77
53659;BME280;41524;35.624;139.698;2022-12-29T06:00:14;101493.00;;;10.60;25.88
53659;BME280;41524;35.624;139.698;2022-12-29T06:05:16;101501.00;;;9.86;26.48
53659;BME280;41524;35.624;139.698;2022-12-29T06:10:11;101496.00;;;11.83;24.43
53659;BME280;41524;35.624;139.698;2022-12-29T06:15:11;101497.00;;;11.72;24.84
53659;BME280;41524;35.624;139.698;2022-12-29T06:20:17;101503.00;;;11.95;24.09
53659;BME280;41524;35.624;139.698;2022-12-29T06:25:11;101507.00;;;10.63;25.31
53659;BME280;41524;35.624;139.698;2022-12-29T06:30:16;101505.00;;;11.78;24.90
53659;BME280;41524;35.624;139.698;2022-12-29T06:35:15;101510.00;;;10.95;24.59
53659;BME280;41524;35.624;139.698;2022-12-29T06:40:16;101511.00;;;11.26;25.48
53659;BME280;41524;35.624;139.698;2022-12-29T06:45:11;101505.00;;;11.90;24.84
53659;BME280;41524;35.624;139.698;2022-12-29T06:50:11;101519.00;;;11.85;24.25
53659;BME280;41524;35.624;139.698;2022-12-29T06:55:11;101534.00;;;11.54;24.98
53659;BME280;41524;35.624;139.698;2022-12-29T07:00:12;101521.00;;;10.57;26.04
53659;BME280;41524;35.624;139.698;2022-12-29T07:05:19;101533.00;;;12.42;25.02
53659;BME280;41524;35.624;139.698;2022-12-29T07:10:12;101534.00;;;11.02;26.57
53659;BME280;41524;35.624;139.698;2022-12-29T07:15:11;101538.00;;;11.77;25.21
53659;BME280;41524;35.624;139.698;2022-12-29T07:20:11;101547.00;;;10.99;26.78
53659;BME280;41524;35.624;139.698;2022-12-29T07:25:17;101549.00;;;11.31;26.24
53659;BME280;41524;35.624;139.698;2022-12-29T07:30:11;101548.00;;;11.09;28.15
53659;BME280;41524;35.624;139.698;2022-12-29T07:35:11;101552.00;;;10.97;28.22
53659;BME280;41524;35.624;139.698;2022-12-29T07:40:12;101555.00;;;11.62;26.38
53659;BME280;41524;35.624;139.698;2022-12-29T07:45:11;101556.00;;;10.95;27.42
53659;BME280;41524;35.624;139.698;2022-12-29T07:50:11;101556.00;;;11.10;27.81
53659;BME280;41524;35.624;139.698;2022-12-29T07:55:10;101566.00;;;11.03;28.74
53659;BME280;41524;35.624;139.698;2022-12-29T08:00:12;101576.00;;;10.69;29.29
53659;BME280;41524;35.624;139.698;2022-12-29T08:05:12;101576.00;;;10.98;29.60
53659;BME280;41524;35.624;139.698;2022-12-29T08:10:12;101583.00;;;9.73;31.31
53659;BME280;41524;35.624;139.698;2022-12-29T08:15:15;101586.00;;;10.19;30.72
53659;BME280;41524;35.624;139.698;2022-12-29T08:20:11;101605.00;;;9.82;31.50
53659;BME280;41524;35.624;139.698;2022-12-29T08:25:16;101604.00;;;9.36;32.32
53659;BME280;41524;35.624;139.698;2022-12-29T08:30:14;101612.00;;;10.01;31.15
53659;BME280;41524;35.624;139.698;2022-12-29T08:35:17;101619.00;;;9.81;30.49
53659;BME280;41524;35.624;139.698;2022-12-29T08:40:15;101629.00;;;9.44;31.54
53659;BME280;41524;35.624;139.698;2022-12-29T08:45:15;101637.00;;;9.37;32.01
53659;BME280;41524;35.624;139.698;2022-12-29T08:50:11;101652.00;;;9.30;33.04
53659;BME280;41524;35.624;139.698;2022-12-29T08:55:10;101653.00;;;8.74;32.97
53659;BME280;41524;35.624;139.698;2022-12-29T09:00:12;101662.00;;;9.01;33.39
53659;BME280;41524;35.624;139.698;2022-12-29T09:05:11;101666.00;;;8.57;34.30
53659;BME280;41524;35.624;139.698;2022-12-29T09:10:11;101674.00;;;8.51;34.66
53659;BME280;41524;35.624;139.698;2022-12-29T09:15:13;101679.00;;;8.29;32.23
53659;BME280;41524;35.624;139.698;2022-12-29T09:20:11;101677.00;;;10.05;27.95
53659;BME280;41524;35.624;139.698;2022-12-29T09:25:13;101689.00;;;9.32;27.59
53659;BME280;41524;35.624;139.698;2022-12-29T09:30:13;101688.00;;;9.32;25.92
53659;BME280;41524;35.624;139.698;2022-12-29T09:40:24;101712.00;;;8.08;26.21
53659;BME280;41524;35.624;139.698;2022-12-29T09:45:16;101716.00;;;9.95;24.67
53659;BME280;41524;35.624;139.698;2022-12-29T09:50:22;101729.00;;;8.81;24.63
53659;BME280;41524;35.624;139.698;2022-12-29T09:55:17;101746.00;;;8.71;25.53
53659;BME280;41524;35.624;139.698;2022-12-29T10:00:18;101750.00;;;9.05;24.62
53659;BME280;41524;35.624;139.698;2022-12-29T10:05:29;101757.00;;;8.62;24.76
53659;BME280;41524;35.624;139.698;2022-12-29T10:10:23;101752.00;;;9.29;24.86
53659;BME280;41524;35.624;139.698;2022-12-29T10:15:18;101754.00;;;9.08;24.91
53659;BME280;41524;35.624;139.698;2022-12-29T10:20:24;101749.00;;;8.78;25.44
53659;BME280;41524;35.624;139.698;2022-12-29T10:25:16;101746.00;;;8.56;25.93
53659;BME280;41524;35.624;139.698;2022-12-29T10:30:13;101747.00;;;8.79;26.11
53659;BME280;41524;35.624;139.698;2022-12-29T10:35:20;101746.00;;;8.42;26.01
53659;BME280;41524;35.624;139.698;2022-12-29T10:40:23;101749.00;;;8.78;25.92
53659;BME280;41524;35.624;139.698;2022-12-29T10:45:19;101748.00;;;8.58;26.53
53659;BME280;41524;35.624;139.698;2022-12-29T10:50:15;101757.00;;;9.03;26.13
53659;BME280;41524;35.624;139.698;2022-12-29T10:55:15;101756.00;;;8.79;26.11
53659;BME280;41524;35.624;139.698;2022-12-29T11:00:23;101746.00;;;7.92;27.21
53659;BME280;41524;35.624;139.698;2022-12-29T11:05:22;101746.00;;;8.51;26.92
53659;BME280;41524;35.624;139.698;2022-12-29T11:10:28;101750.00;;;8.48;26.89
53659;BME280;41524;35.624;139.698;2022-12-29T11:15:16;101744.00;;;8.19;27.69
53659;BME280;41524;35.624;139.698;2022-12-29T11:20:33;101746.00;;;8.17;27.55
53659;BME280;41524;35.624;139.698;2022-12-29T11:25:15;101746.00;;;8.10;27.64
53659;BME280;41524;35.624;139.698;2022-12-29T11:30:23;101740.00;;;8.10;28.08
53659;BME280;41524;35.624;139.698;2022-12-29T11:35:31;101749.00;;;7.94;28.09
53659;BME280;41524;35.624;139.698;2022-12-29T11:40:19;101756.00;;;8.34;27.74
53659;BME280;41524;35.624;139.698;2022-12-29T11:45:22;101767.00;;;7.93;27.75
53659;BME280;41524;35.624;139.698;2022-12-29T11:50:24;101764.00;;;8.13;27.70
53659;BME280;41524;35.624;139.698;2022-12-29T11:55:20;101787.00;;;7.45;27.87
53659;BME280;41524;35.624;139.698;2022-12-29T12:00:19;101797.00;;;7.94;27.86
53659;BME280;41524;35.624;139.698;2022-12-29T12:05:22;101798.00;;;7.31;28.34
53659;BME280;41524;35.624;139.698;2022-12-29T12:10:19;101799.00;;;7.85;28.26
53659;BME280;41524;35.624;139.698;2022-12-29T12:15:22;101811.00;;;7.95;28.60
53659;BME280;41524;35.624;139.698;2022-12-29T12:20:19;101815.00;;;7.56;28.35
53659;BME280;41524;35.624;139.698;2022-12-29T12:25:14;101829.00;;;7.38;28.52
53659;BME280;41524;35.624;139.698;2022-12-29T12:30:23;101840.00;;;7.18;30.03
53659;BME280;41524;35.624;139.698;2022-12-29T12:35:14;101834.00;;;7.78;29.23
53659;BME280;41524;35.624;139.698;2022-12-29T12:41:14;101839.00;;;7.14;29.61
53659;BME280;41524;35.624;139.698;2022-12-29T12:45:27;101839.00;;;7.42;29.04
53659;BME280;41524;35.624;139.698;2022-12-29T12:50:26;101845.00;;;7.62;29.85
53659;BME280;41524;35.624;139.698;2022-12-29T12:55:44;101851.00;;;5.56;31.58
53659;BME280;41524;35.624;139.698;2022-12-29T13:00:17;101858.00;;;6.50;31.12
53659;BME280;41524;35.624;139.698;2022-12-29T13:05:33;101862.00;;;6.22;31.28
53659;BME280;41524;35.624;139.698;2022-12-29T13:10:28;101858.00;;;6.52;30.15
53659;BME280;41524;35.624;139.698;2022-12-29T13:15:28;101857.00;;;6.62;30.43
53659;BME280;41524;35.624;139.698;2022-12-29T13:20:20;101863.00;;;6.19;31.15
53659;BME280;41524;35.624;139.698;2022-12-29T13:25:24;101879.00;;;5.87;31.20
53659;BME280;41524;35.624;139.698;2022-12-29T13:30:18;101869.00;;;6.39;30.99
53659;BME280;41524;35.624;139.698;2022-12-29T13:35:32;101875.00;;;6.30;31.46
53659;BME280;41524;35.624;139.698;2022-12-29T13:40:15;101885.00;;;6.07;31.65
53659;BME280;41524;35.624;139.698;2022-12-29T13:45:20;101906.00;;;5.99;31.62
53659;BME280;41524;35.624;139.698;2022-12-29T13:50:16;101911.00;;;6.54;31.21
53659;BME280;41524;35.624;139.698;2022-12-29T13:55:22;101927.00;;;7.11;30.80
53659;BME280;41524;35.624;139.698;2022-12-29T14:00:22;101934.00;;;5.80;31.79
53659;BME280;41524;35.624;139.698;2022-12-29T14:05:29;101926.00;;;6.04;32.45
53659;BME280;41524;35.624;139.698;2022-12-29T14:10:28;101933.00;;;5.85;32.31
53659;BME280;41524;35.624;139.698;2022-12-29T14:15:24;101934.00;;;6.00;32.13
53659;BME280;41524;35.624;139.698;2022-12-29T14:20:25;101946.00;;;5.63;33.72
53659;BME280;41524;35.624;139.698;2022-12-29T14:25:57;101944.00;;;6.53;32.05
53659;BME280;41524;35.624;139.698;2022-12-29T14:30:49;101945.00;;;5.89;33.11
53659;BME280;41524;35.624;139.698;2022-12-29T14:35:49;101936.00;;;5.95;32.71
53659;BME280;41524;35.624;139.698;2022-12-29T14:40:29;101948.00;;;5.50;33.20
53659;BME280;41524;35.624;139.698;2022-12-29T14:50:24;101938.00;;;6.13;32.22
53659;BME280;41524;35.624;139.698;2022-12-29T14:55:37;101945.00;;;4.92;33.08
53659;BME280;41524;35.624;139.698;2022-12-29T15:00:21;101947.00;;;4.86;33.62
53659;BME280;41524;35.624;139.698;2022-12-29T15:05:29;101952.00;;;4.07;34.39
53659;BME280;41524;35.624;139.698;2022-12-29T15:10:15;101950.00;;;4.53;34.22
53659;BME280;41524;35.624;139.698;2022-12-29T15:15:20;101949.00;;;4.18;34.44
53659;BME280;41524;35.624;139.698;2022-12-29T15:20:24;101942.00;;;4.43;34.25
53659;BME280;41524;35.624;139.698;2022-12-29T15:25:16;101938.00;;;4.26;34.15
53659;BME280;41524;35.624;139.698;2022-12-29T15:30:14;101941.00;;;4.83;33.38
53659;BME280;41524;35.624;139.698;2022-12-29T15:35:37;101954.00;;;5.48;32.71
53659;BME280;41524;35.624;139.698;2022-12-29T15:40:24;101960.00;;;4.52;33.91
53659;BME280;41524;35.624;139.698;2022-12-29T15:45:12;101965.00;;;4.96;33.63
53659;BME280;41524;35.624;139.698;2022-12-29T15:50:18;101954.00;;;4.32;34.06
53659;BME280;41524;35.624;139.698;2022-12-29T15:55:24;101968.00;;;5.01;33.10
53659;BME280;41524;35.624;139.698;2022-12-29T16:00:24;101976.00;;;5.20;32.45
53659;BME280;41524;35.624;139.698;2022-12-29T16:05:16;101979.00;;;5.00;32.45
53659;BME280;41524;35.624;139.698;2022-12-29T16:10:31;101980.00;;;4.61;32.51
53659;BME280;41524;35.624;139.698;2022-12-29T16:15:17;101985.00;;;5.45;31.86
53659;BME280;41524;35.624;139.698;2022-12-29T16:20:17;101997.00;;;5.20;31.91
53659;BME280;41524;35.624;139.698;2022-12-29T16:25:17;102002.00;;;4.38;32.82
53659;BME280;41524;35.624;139.698;2022-12-29T16:30:22;101996.00;;;4.48;32.60
53659;BME280;41524;35.624;139.698;2022-12-29T16:35:16;102002.00;;;4.22;33.43
53659;BME280;41524;35.624;139.698;2022-12-29T16:40:29;102015.00;;;4.35;33.02
53659;BME280;41524;35.624;139.698;2022-12-29T16:50:16;102014.00;;;4.28;33.94
53659;BME280;41524;35.624;139.698;2022-12-29T16:55:18;102028.00;;;5.49;32.57
53659;BME280;41524;35.624;139.698;2022-12-29T17:00:21;102027.00;;;5.94;32.62
53659;BME280;41524;35.624;139.698;2022-12-29T17:05:14;102027.00;;;4.51;33.86
53659;BME280;41524;35.624;139.698;2022-12-29T17:10:11;102024.00;;;4.51;34.34
53659;BME280;41524;35.624;139.698;2022-12-29T17:15:21;102026.00;;;4.88;34.12
53659;BME280;41524;35.624;139.698;2022-12-29T17:20:16;102031.00;;;4.30;35.26
53659;BME280;41524;35.624;139.698;2022-12-29T17:25:15;102038.00;;;4.72;34.79
53659;BME280;41524;35.624;139.698;2022-12-29T17:30:14;102037.00;;;5.30;34.52
53659;BME280;41524;35.624;139.698;2022-12-29T17:35:14;102043.00;;;4.41;35.31
53659;BME280;41524;35.624;139.698;2022-12-29T17:40:15;102032.00;;;4.86;34.55
53659;BME280;41524;35.624;139.698;2022-12-29T17:45:15;102022.00;;;5.43;33.79
53659;BME280;41524;35.624;139.698;2022-12-29T17:50:18;102009.00;;;5.11;34.30
53659;BME280;41524;35.624;139.698;2022-12-29T17:55:21;102001.00;;;4.82;34.93
53659;BME280;41524;35.624;139.698;2022-12-29T18:00:17;101999.00;;;4.69;34.81
53659;BME280;41524;35.624;139.698;2022-12-29T18:05:17;101995.00;;;5.22;34.43
53659;BME280;41524;35.624;139.698;2022-12-29T18:10:11;101992.00;;;5.30;34.55
53659;BME280;41524;35.624;139.698;2022-12-29T18:15:23;101991.00;;;5.66;34.15
53659;BME280;41524;35.624;139.698;2022-12-29T18:20:10;101992.00;;;5.78;34.08
53659;BME280;41524;35.624;139.698;2022-12-29T18:25:22;101994.00;;;5.11;35.20
53659;BME280;41524;35.624;139.698;2022-12-29T18:30:11;101989.00;;;4.43;36.28
53659;BME280;41524;35.624;139.698;2022-12-29T18:35:16;101974.00;;;4.47;35.96
53659;BME280;41524;35.624;139.698;2022-12-29T18:40:13;101982.00;;;5.39;34.88
53659;BME280;41524;35.624;139.698;2022-12-29T18:45:16;101995.00;;;6.12;33.96
53659;BME280;41524;35.624;139.698;2022-12-29T18:50:11;101989.00;;;4.29;36.01
53659;BME280;41524;35.624;139.698;2022-12-29T18:55:14;101988.00;;;4.68;36.09
53659;BME280;41524;35.624;139.698;2022-12-29T19:00:17;101978.00;;;5.52;35.24
53659;BME280;41524;35.624;139.698;2022-12-29T19:05:21;101966.00;;;4.62;36.76
53659;BME280;41524;35.624;139.698;2022-12-29T19:10:10;101965.00;;;5.53;35.06
53659;BME280;41524;35.624;139.698;2022-12-29T19:15:19;101977.00;;;5.23;35.43
53659;BME280;41524;35.624;139.698;2022-12-29T19:20:28;101975.00;;;4.43;36.18
53659;BME280;41524;35.624;139.698;2022-12-29T19:25:15;101984.00;;;5.61;34.88
53659;BME280;41524;35.624;139.698;2022-12-29T19:30:12;101991.00;;;4.48;36.20
53659;BME280;41524;35.624;139.698;2022-12-29T19:35:11;101999.00;;;4.56;36.18
53659;BME280;41524;35.624;139.698;2022-12-29T19:40:13;101999.00;;;4.09;36.60
53659;BME280;41524;35.624;139.698;2022-12-29T19:45:12;102000.00;;;4.43;36.91
53659;BME280;41524;35.624;139.698;2022-12-29T19:50:14;102005.00;;;3.46;37.88
53659;BME280;41524;35.624;139.698;2022-12-29T19:55:14;102002.00;;;5.04;36.46
53659;BME280;41524;35.624;139.698;2022-12-29T20:00:12;102009.00;;;5.13;36.58
53659;BME280;41524;35.624;139.698;2022-12-29T20:05:10;102015.00;;;3.87;38.20
53659;BME280;41524;35.624;139.698;2022-12-29T20:10:14;102017.00;;;4.84;36.61
53659;BME280;41524;35.624;139.698;2022-12-29T20:15:20;102035.00;;;3.98;37.52
53659;BME280;41524;35.624;139.698;2022-12-29T20:20:13;102036.00;;;3.78;38.15
53659;BME280;41524;35.624;139.698;2022-12-29T20:25:17;102037.00;;;4.35;37.70
53659;BME280;41524;35.624;139.698;2022-12-29T20:30:20;102041.00;;;3.99;37.99
53659;BME280;41524;35.624;139.698;2022-12-29T20:35:11;102045.00;;;4.10;37.98
53659;BME280;41524;35.624;139.698;2022-12-29T20:40:13;102055.00;;;4.11;37.93
53659;BME280;41524;35.624;139.698;2022-12-29T20:45:13;102067.00;;;3.11;39.47
53659;BME280;41524;35.624;139.698;2022-12-29T20:50:16;102076.00;;;4.40;38.13
53659;BME280;41524;35.624;139.698;2022-12-29T20:55:11;102090.00;;;4.26;38.66
53659;BME280;41524;35.624;139.698;2022-12-29T21:00:12;102087.00;;;2.47;40.67
53659;BME280;41524;35.624;139.698;2022-12-29T21:05:13;102094.00;;;3.11;39.82
53659;BME280;41524;35.624;139.698;2022-12-29T21:10:10;102111.00;;;3.85;38.80
53659;BME280;41524;35.624;139.698;2022-12-29T21:15:10;102119.00;;;3.63;39.35
53659;BME280;41524;35.624;139.698;2022-12-29T21:20:15;102122.00;;;3.29;40.05
53659;BME280;41524;35.624;139.698;2022-12-29T21:25:12;102130.00;;;2.92;40.07
53659;BME280;41524;35.624;139.698;2022-12-29T21:30:16;102138.00;;;2.97;40.44
53659;BME280;41524;35.624;139.698;2022-12-29T21:35:17;102150.00;;;4.83;38.54
53659;BME280;41524;35.624;139.698;2022-12-29T21:40:12;102162.00;;;4.32;39.18
53659;BME280;41524;35.624;139.698;2022-12-29T21:45:12;102155.00;;;3.10;41.14
53659;BME280;41524;35.624;139.698;2022-12-29T21:50:11;102159.00;;;3.62;40.16
53659;BME280;41524;35.624;139.698;2022-12-29T21:55:12;102174.00;;;3.22;40.80
53659;BME280;41524;35.624;139.698;2022-12-29T22:00:11;102175.00;;;3.86;39.96
53659;BME280;41524;35.624;139.698;2022-12-29T22:05:13;102182.00;;;3.41;41.28
53659;BME280;41524;35.624;139.698;2022-12-29T22:10:15;102185.00;;;3.80;40.77
53659;BME280;41524;35.624;139.698;2022-12-29T22:15:11;102195.00;;;3.52;42.31
53659;BME280;41524;35.624;139.698;2022-12-29T22:20:11;102186.00;;;3.99;42.32
53659;BME280;41524;35.624;139.698;2022-12-29T22:25:10;102193.00;;;4.51;41.31
53659;BME280;41524;35.624;139.698;2022-12-29T22:30:13;102189.00;;;4.82;41.31
53659;BME280;41524;35.624;139.698;2022-12-29T22:35:12;102194.00;;;4.48;42.66
53659;BME280;41524;35.624;139.698;2022-12-29T22:40:15;102194.00;;;4.51;41.15
53659;BME280;41524;35.624;139.698;2022-12-29T22:45:15;102197.00;;;4.50;40.74
53659;BME280;41524;35.624;139.698;2022-12-29T22:50:11;102208.00;;;4.63;41.33
53659;BME280;41524;35.624;139.698;2022-12-29T22:55:11;102208.00;;;4.25;40.08
53659;BME280;41524;35.624;139.698;2022-12-29T23:00:11;102204.00;;;5.33;38.77
53659;BME280;41524;35.624;139.698;2022-12-29T23:05:14;102202.00;;;4.73;40.26
53659;BME280;41524;35.624;139.698;2022-12-29T23:10:11;102216.00;;;4.44;39.82
53659;BME280;41524;35.624;139.698;2022-12-29T23:15:11;102212.00;;;4.90;40.02
53659;BME280;41524;35.624;139.698;2022-12-29T23:20:11;102207.00;;;5.01;38.97
53659;BME280;41524;35.624;139.698;2022-12-29T23:25:11;102209.00;;;5.28;38.81
53659;BME280;41524;35.624;139.698;2022-12-29T23:30:24;102216.00;;;4.51;40.08
53659;BME280;41524;35.624;139.698;2022-12-29T23:35:13;102214.00;;;5.53;38.37
53659;BME280;41524;35.624;139.698;2022-12-29T23:40:15;102215.00;;;5.87;38.55
53659;BME280;41524;35.624;139.698;2022-12-29T23:45:11;102218.00;;;6.24;38.30
53659;BME280;41524;35.624;139.698;2022-12-29T23:50:10;102209.00;;;7.03;37.80
53659;BME280;41524;35.624;139.698;2022-12-29T23:55:14;102216.00;;;7.04;35.04
